createdAt,value
2022-11-18T00:01:14.579Z,14.50
2022-11-18T00:03:43.287Z,18.37
2022-11-18T00:06:13.318Z,12.57
2022-11-18T00:08:40.843Z,15.47
2022-11-18T00:11:13.507Z,14.90
2022-11-18T00:13:59.629Z,15.47
2022-11-18T00:16:27.077Z,14.20
2022-11-18T00:18:54.291Z,11.63
2022-11-18T00:21:21.667Z,16.77
2022-11-18T00:23:49.554Z,16.63
2022-11-18T00:26:16.907Z,13.63
2022-11-18T00:28:44.294Z,17.07
2022-11-18T00:31:14.364Z,14.17
2022-11-18T00:33:42.268Z,13.27
2022-11-18T00:36:12.072Z,14.50
2022-11-18T00:38:40.393Z,14.17
2022-11-18T00:41:10.298Z,14.90
2022-11-18T00:43:37.963Z,15.27
2022-11-18T00:46:07.842Z,14.53
2022-11-18T00:48:36.139Z,14.47
2022-11-18T00:51:18.052Z,14.70
2022-11-18T00:53:45.875Z,16.07
2022-11-18T00:56:13.378Z,14.20
2022-11-18T00:58:40.616Z,15.57
2022-11-18T01:01:07.947Z,16.20
2022-11-18T01:03:35.316Z,15.83
2022-11-18T01:06:02.661Z,17.60
2022-11-18T01:08:30.048Z,14.40
2022-11-18T01:11:19.835Z,14.93
2022-11-18T01:13:50.755Z,14.17
2022-11-18T01:16:26.719Z,19.23
2022-11-18T01:18:54.729Z,16.93
2022-11-18T01:21:22.772Z,18.50
2022-11-18T01:23:50.039Z,19.23
2022-11-18T01:26:18.624Z,17.97
2022-11-18T01:28:46.566Z,18.93
2022-11-18T01:31:17.096Z,17.00
2022-11-18T01:33:44.895Z,16.67
2022-11-18T01:36:20.865Z,17.20
2022-11-18T01:38:48.914Z,16.60
2022-11-18T01:41:17.057Z,21.83
2022-11-18T01:43:53.169Z,18.90
2022-11-18T01:46:21.726Z,20.03
2022-11-18T01:48:53.932Z,19.93
2022-11-18T01:51:26.622Z,23.53
2022-11-18T01:54:01.098Z,21.37
2022-11-18T01:56:43.808Z,19.20
2022-11-18T01:59:18.896Z,21.43
2022-11-18T02:01:46.859Z,19.23
2022-11-18T02:04:15.336Z,18.67
2022-11-18T02:06:47.775Z,19.40
2022-11-18T02:09:17.742Z,20.50
2022-11-18T02:11:51.565Z,18.30
2022-11-18T02:14:30.735Z,20.00
2022-11-18T02:17:32.222Z,23.50
2022-11-18T02:20:14.428Z,20.43
2022-11-18T02:23:06.211Z,21.97
2022-11-18T02:26:02.900Z,19.57
2022-11-18T02:28:41.217Z,20.00
2022-11-18T02:31:35.279Z,20.50
2022-11-18T02:34:22.327Z,19.57
2022-11-18T02:37:15.839Z,21.77
2022-11-18T02:39:51.771Z,20.27
2022-11-18T02:42:19.599Z,19.93
2022-11-18T02:44:53.313Z,20.83
2022-11-18T02:47:22.519Z,17.67
2022-11-18T02:49:55.260Z,22.17
2022-11-18T02:52:24.466Z,21.97
2022-11-18T02:54:53.137Z,20.33
2022-11-18T02:57:22.614Z,25.87
2022-11-18T02:59:49.903Z,20.83
2022-11-18T03:02:19.778Z,19.53
2022-11-18T03:04:49.294Z,21.27
2022-11-18T03:07:25.272Z,22.47
2022-11-18T03:09:53.678Z,20.83
2022-11-18T03:12:35.854Z,19.30
2022-11-18T03:15:35.418Z,19.13
2022-11-18T03:18:08.342Z,20.73
2022-11-18T03:20:47.533Z,19.00
2022-11-18T03:23:28.458Z,20.03
2022-11-18T03:26:10.044Z,22.63
2022-11-18T03:28:48.389Z,20.63
2022-11-18T03:31:22.651Z,20.77
2022-11-18T03:34:03.430Z,21.53
2022-11-18T03:36:35.499Z,21.33
2022-11-18T03:39:06.698Z,18.80
2022-11-18T03:41:40.398Z,18.37
2022-11-18T03:44:14.305Z,19.77
2022-11-18T03:46:52.319Z,16.97
2022-11-18T03:49:43.256Z,18.37
2022-11-18T03:52:20.686Z,20.13
2022-11-18T03:54:51.790Z,20.17
2022-11-18T03:57:34.935Z,20.80
2022-11-18T04:00:12.495Z,20.80
2022-11-18T04:02:40.263Z,21.03
2022-11-18T04:05:12.767Z,20.87
2022-11-18T04:07:45.995Z,20.63
2022-11-18T04:10:23.925Z,18.93
2022-11-18T04:13:22.839Z,18.30
2022-11-18T04:15:50.402Z,18.73
2022-11-18T04:18:18.395Z,19.33
2022-11-18T04:20:45.730Z,20.83
2022-11-18T04:23:13.440Z,20.77
2022-11-18T04:25:40.951Z,25.57
2022-11-18T04:28:08.196Z,20.63
2022-11-18T04:30:35.664Z,21.93
2022-11-18T04:33:03.313Z,25.40
2022-11-18T04:35:30.868Z,23.87
2022-11-18T04:37:58.284Z,26.07
2022-11-18T04:40:25.673Z,23.50
2022-11-18T04:42:52.950Z,20.77
2022-11-18T04:45:20.835Z,23.97
2022-11-18T04:47:48.416Z,22.27
2022-11-18T04:50:15.954Z,20.20
2022-11-18T04:52:43.322Z,23.17
2022-11-18T04:55:10.784Z,23.77
2022-11-18T04:57:38.055Z,21.67
2022-11-18T05:00:06.028Z,25.93
2022-11-18T05:02:33.598Z,27.17
2022-11-18T05:05:01.355Z,25.07
2022-11-18T05:07:28.649Z,25.27
2022-11-18T05:09:55.934Z,22.23
2022-11-18T05:12:41.773Z,24.70
2022-11-18T05:15:09.581Z,23.80
2022-11-18T05:17:37.006Z,25.53
2022-11-18T05:20:04.631Z,22.93
2022-11-18T05:22:32.056Z,26.17
2022-11-18T05:24:59.392Z,26.70
2022-11-18T05:27:26.885Z,23.93
2022-11-18T05:29:54.313Z,21.80
2022-11-18T05:32:21.631Z,24.63
2022-11-18T05:34:48.923Z,24.90
2022-11-18T05:37:16.531Z,21.73
2022-11-18T05:39:43.875Z,22.90
2022-11-18T05:42:30.328Z,21.40
2022-11-18T05:44:58.611Z,20.40
2022-11-18T05:47:26.769Z,20.33
2022-11-18T05:49:54.065Z,20.50
2022-11-18T05:52:21.855Z,21.17
2022-11-18T05:54:51.314Z,21.87
2022-11-18T05:57:18.710Z,18.60
2022-11-18T05:59:46.045Z,20.17
2022-11-18T06:02:18.431Z,22.20
2022-11-18T06:04:59.218Z,19.23
2022-11-18T06:07:35.016Z,21.00
2022-11-18T06:10:06.061Z,17.27
2022-11-18T06:12:40.466Z,21.63
2022-11-18T06:15:31.362Z,19.40
2022-11-18T06:18:04.212Z,21.60
2022-11-18T06:20:34.261Z,22.73
2022-11-18T06:23:02.632Z,19.93
2022-11-18T06:25:30.506Z,20.40
2022-11-18T06:28:01.921Z,21.37
2022-11-18T06:30:29.274Z,20.10
2022-11-18T06:32:56.647Z,20.93
2022-11-18T06:35:24.134Z,20.67
2022-11-18T06:37:51.353Z,17.47
2022-11-18T06:40:18.686Z,20.37
2022-11-18T06:43:04.711Z,19.97
2022-11-18T06:45:32.018Z,17.83
2022-11-18T06:48:01.477Z,20.57
2022-11-18T06:50:29.200Z,18.77
2022-11-18T06:52:57.049Z,20.63
2022-11-18T06:55:24.552Z,22.17
2022-11-18T06:57:51.915Z,22.13
2022-11-18T07:00:20.037Z,20.73
2022-11-18T07:02:47.386Z,21.60
2022-11-18T07:05:14.854Z,23.50
2022-11-18T07:07:42.625Z,22.60
2022-11-18T07:10:10.988Z,21.73
2022-11-18T07:12:38.579Z,21.63
2022-11-18T07:15:06.385Z,24.27
2022-11-18T07:17:34.052Z,21.43
2022-11-18T07:20:01.555Z,22.37
2022-11-18T07:22:29.196Z,24.37
2022-11-18T07:24:56.522Z,23.77
2022-11-18T07:27:23.898Z,23.90
2022-11-18T07:29:51.237Z,25.20
2022-11-18T07:32:18.696Z,23.97
2022-11-18T07:34:46.160Z,21.20
2022-11-18T07:37:13.506Z,94.00
2022-11-18T07:39:40.731Z,36.33
2022-11-18T07:42:12.164Z,24.27
2022-11-18T07:44:39.473Z,26.43
2022-11-18T07:47:06.719Z,33.10
2022-11-18T07:49:34.436Z,31.27
2022-11-18T07:52:02.176Z,31.63
2022-11-18T07:54:29.456Z,31.13
2022-11-18T07:56:57.403Z,27.97
2022-11-18T07:59:24.844Z,30.07
2022-11-18T08:01:52.216Z,40.33
2022-11-18T08:04:19.600Z,36.30
2022-11-18T08:06:47.095Z,32.33
2022-11-18T08:09:14.345Z,28.93
2022-11-18T08:11:41.572Z,31.90
2022-11-18T08:14:09.071Z,33.17
2022-11-18T08:16:36.363Z,28.40
2022-11-18T08:19:04.104Z,31.63
2022-11-18T08:21:31.912Z,29.03
2022-11-18T08:24:00.047Z,28.83
2022-11-18T08:26:28.042Z,33.03
2022-11-18T08:28:55.600Z,30.50
2022-11-18T08:31:25.938Z,27.13
2022-11-18T08:34:06.884Z,27.77
2022-11-18T08:36:38.324Z,24.37
2022-11-18T08:39:08.858Z,29.47
2022-11-18T08:41:44.271Z,27.43
2022-11-18T08:44:14.264Z,27.40
2022-11-18T08:46:42.491Z,42.13
2022-11-18T08:49:10.291Z,36.93
2022-11-18T08:51:37.780Z,67.53
2022-11-18T08:54:05.439Z,51.87
2022-11-18T08:56:32.743Z,40.10
2022-11-18T08:59:00.053Z,38.13
2022-11-18T09:01:27.946Z,35.77
2022-11-18T09:03:56.277Z,51.93
2022-11-18T09:06:27.214Z,49.53
2022-11-18T09:08:55.079Z,34.67
2022-11-18T09:11:25.225Z,52.27
2022-11-18T09:16:45.095Z,48.57
2022-11-18T09:19:45.087Z,41.03
2022-11-18T09:22:00.184Z,37.23
2022-11-18T09:24:27.636Z,57.63
2022-11-18T09:26:54.992Z,49.97
2022-11-18T09:29:26.478Z,48.77
2022-11-18T09:31:55.045Z,53.27
2022-11-18T09:34:23.645Z,41.07
2022-11-18T09:36:51.375Z,37.67
2022-11-18T09:39:19.577Z,34.43
2022-11-18T09:41:48.363Z,41.60
2022-11-18T09:44:31.307Z,47.80
2022-11-18T09:47:04.662Z,41.47
2022-11-18T09:49:31.903Z,39.17
2022-11-18T09:52:04.676Z,40.70
2022-11-18T09:54:35.639Z,37.50
2022-11-18T09:57:04.753Z,39.77
2022-11-18T09:59:33.648Z,39.80
2022-11-18T10:02:30.268Z,51.20
2022-11-18T10:05:18.832Z,53.30
2022-11-18T10:07:49.105Z,40.07
2022-11-18T10:10:23.365Z,44.57
2022-11-18T10:13:06.125Z,38.20
2022-11-18T10:16:14.695Z,45.03
2022-11-18T10:19:06.393Z,40.50
2022-11-18T10:21:45.385Z,38.63
2022-11-18T10:24:24.784Z,37.13
2022-11-18T10:27:01.850Z,40.13
2022-11-18T10:29:29.122Z,42.10
2022-11-18T10:32:04.995Z,37.27
2022-11-18T10:34:34.616Z,38.67
2022-11-18T10:38:00.334Z,37.07
2022-11-18T10:40:32.679Z,50.93
2022-11-18T10:43:00.601Z,44.17
2022-11-18T10:45:30.826Z,53.60
2022-11-18T10:48:22.743Z,47.07
2022-11-18T10:50:55.662Z,36.70
2022-11-18T10:53:32.654Z,36.50
2022-11-18T10:56:08.520Z,35.13
2022-11-18T10:58:41.682Z,37.73
2022-11-18T11:01:25.273Z,37.07
2022-11-18T11:04:04.018Z,35.97
2022-11-18T11:06:32.701Z,32.17
2022-11-18T11:09:07.423Z,32.13
2022-11-18T11:11:55.198Z,36.37
2022-11-18T11:14:32.112Z,36.20
2022-11-18T11:17:19.596Z,32.83
2022-11-18T11:19:57.215Z,39.03
2022-11-18T11:22:24.778Z,34.50
2022-11-18T11:24:52.102Z,42.23
2022-11-18T11:30:26.298Z,41.93
2022-11-18T11:33:17.716Z,38.13
2022-11-18T11:36:15.004Z,29.57
2022-11-18T11:38:47.575Z,32.90
2022-11-18T11:41:23.394Z,32.87
2022-11-18T11:44:11.782Z,32.83
2022-11-18T11:47:11.166Z,34.47
2022-11-18T11:49:53.160Z,31.33
2022-11-18T11:52:45.241Z,36.97
2022-11-18T11:55:25.127Z,71.70
2022-11-18T11:58:19.331Z,61.67
2022-11-18T12:00:58.551Z,46.23
2022-11-18T12:03:58.329Z,39.33
2022-11-18T12:06:26.647Z,38.37
2022-11-18T12:09:37.438Z,36.87
2022-11-18T12:12:35.972Z,34.10
2022-11-18T12:15:31.094Z,31.83
2022-11-18T12:18:16.406Z,30.00
2022-11-18T12:20:48.173Z,44.10
2022-11-18T12:23:25.051Z,37.37
2022-11-18T12:25:55.427Z,43.43
2022-11-18T12:28:24.089Z,37.80
2022-11-18T12:31:11.740Z,43.53
2022-11-18T12:33:50.278Z,39.17
2022-11-18T12:36:36.098Z,37.50
2022-11-18T12:39:22.218Z,26.93
2022-11-18T12:42:10.901Z,28.13
2022-11-18T12:44:39.660Z,35.23
2022-11-18T12:47:11.155Z,33.37
2022-11-18T12:49:38.383Z,27.80
2022-11-18T12:52:32.004Z,38.27
2022-11-18T12:55:01.761Z,29.30
2022-11-18T12:57:32.935Z,38.27
2022-11-18T13:00:25.266Z,34.73
2022-11-18T13:02:58.097Z,32.50
2022-11-18T13:05:34.040Z,43.07
2022-11-18T13:08:15.935Z,35.47
2022-11-18T13:11:15.077Z,36.20
2022-11-18T13:13:43.086Z,23.40
2022-11-18T13:16:41.796Z,42.30
2022-11-18T13:19:09.412Z,29.13
2022-11-18T13:21:56.207Z,30.37
2022-11-18T13:24:24.206Z,35.37
2022-11-18T13:27:00.236Z,35.03
2022-11-18T13:29:31.883Z,45.50
2022-11-18T13:32:02.743Z,57.80
2022-11-18T13:34:32.658Z,64.13
2022-11-18T13:37:01.555Z,50.73
2022-11-18T13:39:31.688Z,46.77
2022-11-18T13:42:17.063Z,60.73
2022-11-18T13:44:55.988Z,34.50
2022-11-18T13:47:44.572Z,37.37
2022-11-18T13:50:11.749Z,35.00
2022-11-18T13:52:47.812Z,37.17
2022-11-18T13:55:25.931Z,32.83
2022-11-18T13:58:01.668Z,30.10
2022-11-18T14:00:30.803Z,32.00
2022-11-18T14:03:04.233Z,45.37
2022-11-18T14:05:32.018Z,36.73
2022-11-18T14:08:07.867Z,31.97
2022-11-18T14:10:45.298Z,40.73
2022-11-18T14:13:25.042Z,37.67
2022-11-18T14:15:54.619Z,35.43
2022-11-18T14:18:35.382Z,40.97
2022-11-18T14:21:04.937Z,42.17
2022-11-18T14:23:37.314Z,33.93
2022-11-18T14:26:07.419Z,39.80
2022-11-18T14:28:39.726Z,45.57
2022-11-18T14:31:26.743Z,36.63
2022-11-18T14:34:24.693Z,36.93
2022-11-18T14:36:53.764Z,38.47
2022-11-18T14:39:26.819Z,35.70
2022-11-18T14:41:55.484Z,30.70
2022-11-18T14:44:24.907Z,43.40
2022-11-18T14:47:02.752Z,50.83
2022-11-18T14:49:32.981Z,53.07
2022-11-18T14:52:05.055Z,68.80
2022-11-18T14:54:32.584Z,38.60
2022-11-18T14:57:05.478Z,36.30
2022-11-18T14:59:33.497Z,30.53
2022-11-18T15:02:01.882Z,36.53
2022-11-18T15:04:29.211Z,32.90
2022-11-18T15:06:56.683Z,29.87
2022-11-18T15:09:24.166Z,27.47
2022-11-18T15:11:51.555Z,35.23
2022-11-18T15:14:18.936Z,39.33
2022-11-18T15:16:46.302Z,36.13
2022-11-18T15:19:15.736Z,32.20
2022-11-18T15:21:43.989Z,33.67
2022-11-18T15:24:14.733Z,31.77
2022-11-18T15:26:45.479Z,33.97
2022-11-18T15:29:21.526Z,34.17
2022-11-18T15:31:49.702Z,37.57
2022-11-18T15:34:18.863Z,31.00
2022-11-18T15:36:46.784Z,33.83
2022-11-18T15:39:16.999Z,25.20
2022-11-18T15:41:45.236Z,23.70
2022-11-18T15:44:13.009Z,25.53
2022-11-18T15:46:45.845Z,25.93
2022-11-18T15:49:14.939Z,23.77
2022-11-18T15:51:42.459Z,27.67
2022-11-18T15:54:10.877Z,54.37
2022-11-18T15:56:40.094Z,32.03
2022-11-18T15:59:11.152Z,30.60
2022-11-18T16:01:49.562Z,22.13
2022-11-18T16:04:19.410Z,43.00
2022-11-18T16:06:47.535Z,30.63
2022-11-18T16:09:16.667Z,26.20
2022-11-18T16:12:02.763Z,39.37
2022-11-18T16:14:30.427Z,21.70
2022-11-18T16:16:59.069Z,18.47
2022-11-18T16:19:27.604Z,18.50
2022-11-18T16:21:57.323Z,22.47
2022-11-18T16:24:27.517Z,17.57
2022-11-18T16:26:55.369Z,14.63
2022-11-18T16:29:24.190Z,15.73
2022-11-18T16:31:53.172Z,17.63
2022-11-18T16:34:28.212Z,23.30
2022-11-18T16:37:02.015Z,14.70
2022-11-18T16:39:29.623Z,15.73
2022-11-18T16:42:08.453Z,16.03
2022-11-18T16:44:40.239Z,16.17
2022-11-18T16:47:14.178Z,15.47
2022-11-18T16:49:43.251Z,13.43
2022-11-18T16:52:10.680Z,16.13
2022-11-18T16:54:44.213Z,21.80
2022-11-18T16:57:13.657Z,17.20
2022-11-18T16:59:41.157Z,18.57
2022-11-18T17:02:13.252Z,14.63
2022-11-18T17:04:40.965Z,29.03
2022-11-18T17:07:08.491Z,26.57
2022-11-18T17:09:36.508Z,19.47
2022-11-18T17:12:04.405Z,16.33
2022-11-18T17:14:36.492Z,28.87
2022-11-18T17:17:04.079Z,14.33
2022-11-18T17:19:31.534Z,19.37
2022-11-18T17:21:59.436Z,30.23
2022-11-18T17:24:27.353Z,17.33
2022-11-18T17:26:56.039Z,28.20
2022-11-18T17:29:23.422Z,22.43
2022-11-18T17:31:50.777Z,19.83
2022-11-18T17:34:18.673Z,23.73
2022-11-18T17:36:46.256Z,25.30
2022-11-18T17:39:13.947Z,27.50
2022-11-18T17:42:00.682Z,127.33
2022-11-18T17:44:29.431Z,55.47
2022-11-18T17:46:57.240Z,23.50
2022-11-18T17:49:24.872Z,20.00
2022-11-18T17:51:52.515Z,18.97
2022-11-18T17:54:20.846Z,13.13
2022-11-18T17:56:48.970Z,13.70
2022-11-18T17:59:17.683Z,12.57
2022-11-18T18:01:46.613Z,15.30
2022-11-18T18:04:15.475Z,15.90
2022-11-18T18:06:43.163Z,19.40
2022-11-18T18:09:10.668Z,16.87
2022-11-18T18:11:38.564Z,17.87
2022-11-18T18:14:14.955Z,17.73
2022-11-18T18:16:48.242Z,15.73
2022-11-18T18:19:20.562Z,18.90
2022-11-18T18:21:48.645Z,18.13
2022-11-18T18:24:18.606Z,19.50
2022-11-18T18:26:46.233Z,21.63
2022-11-18T18:29:13.684Z,21.57
2022-11-18T18:31:41.008Z,17.77
2022-11-18T18:34:08.307Z,15.63
2022-11-18T18:36:36.037Z,14.17
2022-11-18T18:39:03.927Z,16.10
2022-11-18T18:41:32.585Z,13.37
2022-11-18T18:44:00.672Z,14.17
2022-11-18T18:46:34.460Z,17.33
2022-11-18T18:49:08.881Z,14.97
2022-11-18T18:51:49.687Z,12.50
2022-11-18T18:54:19.289Z,17.93
2022-11-18T18:56:47.378Z,18.60
2022-11-18T18:59:15.016Z,14.93
2022-11-18T19:01:42.504Z,16.37
2022-11-18T19:04:16.861Z,15.13
2022-11-18T19:06:56.827Z,15.67
2022-11-18T19:09:26.766Z,14.33
2022-11-18T19:12:13.145Z,16.47
2022-11-18T19:14:40.806Z,27.83
2022-11-18T19:17:12.066Z,33.43
2022-11-18T19:20:00.753Z,29.40
2022-11-18T19:22:32.388Z,34.03
2022-11-18T19:25:01.177Z,31.53
2022-11-18T19:27:30.056Z,25.83
2022-11-18T19:29:57.575Z,29.47
2022-11-18T19:32:26.000Z,33.63
2022-11-18T19:34:53.381Z,34.50
2022-11-18T19:37:20.911Z,36.53
2022-11-18T19:39:48.262Z,34.00
2022-11-18T19:42:15.624Z,36.67
2022-11-18T19:44:43.065Z,35.97
2022-11-18T19:47:10.337Z,33.47
2022-11-18T19:49:37.885Z,36.63
2022-11-18T19:52:05.221Z,37.83
2022-11-18T19:54:32.558Z,33.60
2022-11-18T19:57:00.662Z,31.73
2022-11-18T19:59:27.938Z,35.30
2022-11-18T20:01:55.458Z,35.63
2022-11-18T20:04:22.867Z,35.73
2022-11-18T20:06:50.496Z,35.13
2022-11-18T20:09:18.694Z,36.23
2022-11-18T20:11:46.203Z,40.03
2022-11-18T20:14:13.661Z,38.10
2022-11-18T20:16:41.030Z,31.73
2022-11-18T20:19:10.916Z,31.60
2022-11-18T20:21:39.503Z,32.53
2022-11-18T20:24:08.306Z,29.40
2022-11-18T20:26:38.589Z,28.70
2022-11-18T20:29:07.561Z,29.33
2022-11-18T20:31:36.757Z,29.67
2022-11-18T20:34:04.915Z,28.77
2022-11-18T20:36:36.063Z,29.77
2022-11-18T20:39:11.957Z,36.43
2022-11-18T20:41:39.356Z,34.87
2022-11-18T20:44:06.758Z,35.47
2022-11-18T20:46:34.996Z,37.30
2022-11-18T20:49:03.606Z,47.37
2022-11-18T20:51:34.237Z,45.00
2022-11-18T20:54:03.011Z,38.67
2022-11-18T20:56:30.542Z,34.30
2022-11-18T20:58:58.495Z,31.60
2022-11-18T21:01:28.568Z,31.90
2022-11-18T21:04:00.744Z,33.03
2022-11-18T21:06:30.469Z,31.80
2022-11-18T21:09:03.546Z,29.30
2022-11-18T21:11:33.443Z,29.93
2022-11-18T21:14:23.838Z,32.13
2022-11-18T21:17:06.754Z,30.50
2022-11-18T21:19:34.567Z,30.93
2022-11-18T21:22:02.159Z,32.53
2022-11-18T21:24:35.154Z,34.40
2022-11-18T21:27:04.796Z,35.03
2022-11-18T21:29:34.340Z,32.27
2022-11-18T21:32:03.003Z,31.90
2022-11-18T21:34:30.636Z,33.50
2022-11-18T21:36:58.587Z,32.90
2022-11-18T21:39:26.265Z,36.00
2022-11-18T21:41:57.653Z,30.67
2022-11-18T21:44:26.372Z,33.77
2022-11-18T21:46:53.997Z,34.77
2022-11-18T21:49:22.132Z,40.40
2022-11-18T21:51:49.974Z,35.83
2022-11-18T21:54:18.623Z,34.50
2022-11-18T21:56:45.986Z,36.47
2022-11-18T21:59:13.262Z,38.87
2022-11-18T22:01:40.760Z,35.97
2022-11-18T22:04:08.361Z,37.37
2022-11-18T22:06:36.089Z,45.53
2022-11-18T22:09:04.720Z,38.17
2022-11-18T22:11:34.393Z,38.40
2022-11-18T22:14:02.487Z,46.67
2022-11-18T22:16:29.854Z,50.80
2022-11-18T22:19:03.654Z,50.40
2022-11-18T22:21:35.991Z,48.70
2022-11-18T22:24:03.719Z,46.30
2022-11-18T22:26:31.173Z,44.20
2022-11-18T22:28:58.954Z,48.90
2022-11-18T22:31:28.403Z,41.90
2022-11-18T22:33:56.911Z,41.00
2022-11-18T22:36:26.707Z,36.60
2022-11-18T22:38:55.104Z,41.30
2022-11-18T22:41:43.440Z,40.60
2022-11-18T22:44:12.336Z,39.67
2022-11-18T22:46:41.305Z,47.40
2022-11-18T22:49:09.998Z,43.83
2022-11-18T22:51:38.605Z,35.90
2022-11-18T22:56:54.844Z,41.50
2022-11-18T22:59:22.768Z,39.63
2022-11-18T23:01:54.105Z,34.50
2022-11-18T23:04:21.775Z,53.43
2022-11-18T23:06:50.160Z,42.43
2022-11-18T23:09:18.045Z,33.33
2022-11-18T23:12:04.441Z,31.73
2022-11-18T23:14:31.975Z,31.03
2022-11-18T23:16:59.652Z,29.30
2022-11-18T23:19:27.617Z,32.47
2022-11-18T23:21:54.997Z,38.77
2022-11-18T23:24:22.455Z,40.00
2022-11-18T23:26:50.459Z,31.37
2022-11-18T23:29:18.057Z,33.70
2022-11-18T23:31:45.912Z,31.30
2022-11-18T23:34:15.628Z,30.33
2022-11-18T23:36:43.366Z,29.37
2022-11-18T23:39:10.705Z,27.70
2022-11-18T23:41:38.191Z,27.53
2022-11-18T23:44:06.292Z,32.33
2022-11-18T23:46:34.204Z,29.97
2022-11-18T23:49:01.837Z,32.70
2022-11-18T23:51:29.039Z,35.60
2022-11-18T23:53:57.679Z,31.97
2022-11-18T23:56:27.225Z,32.93
2022-11-18T23:58:56.127Z,32.50
